createdAt,value
2019-02-10T00:00:43.566Z,4.90
2019-02-10T00:03:12.320Z,4.80
2019-02-10T00:05:41.162Z,4.90
2019-02-10T00:08:09.916Z,4.90
2019-02-10T00:10:38.684Z,4.90
2019-02-10T00:13:29.344Z,4.90
2019-02-10T00:16:00.005Z,4.80
2019-02-10T00:18:28.734Z,4.80
2019-02-10T00:20:57.515Z,4.80
2019-02-10T00:23:26.294Z,4.80
2019-02-10T00:25:55.061Z,4.90
2019-02-10T00:28:23.784Z,4.80
2019-02-10T00:30:54.455Z,4.90
2019-02-10T00:33:23.149Z,4.90
2019-02-10T00:35:51.908Z,4.90
2019-02-10T00:38:20.637Z,4.90
2019-02-10T00:40:49.396Z,4.90
2019-02-10T00:43:18.156Z,4.90
2019-02-10T00:45:46.918Z,4.90
2019-02-10T00:48:15.652Z,5.00
2019-02-10T00:50:44.481Z,5.00
2019-02-10T00:53:13.216Z,5.00
2019-02-10T00:55:41.976Z,5.00
2019-02-10T00:58:10.733Z,4.90
2019-02-10T01:00:39.457Z,4.90
2019-02-10T01:03:08.224Z,4.80
2019-02-10T01:05:37.044Z,4.90
2019-02-10T01:08:05.972Z,4.80
2019-02-10T01:10:34.809Z,4.70
2019-02-10T01:13:03.556Z,4.70
2019-02-10T01:15:32.360Z,4.70
2019-02-10T01:18:01.124Z,4.60
2019-02-10T01:20:29.860Z,4.50
2019-02-10T01:22:58.686Z,4.50
2019-02-10T01:25:27.430Z,4.50
2019-02-10T01:27:56.181Z,4.50
2019-02-10T01:30:24.960Z,4.40
2019-02-10T01:32:53.721Z,4.40
2019-02-10T01:35:22.452Z,4.40
2019-02-10T01:37:51.535Z,4.40
2019-02-10T01:40:20.256Z,4.30
2019-02-10T01:42:49.017Z,4.30
2019-02-10T01:45:17.817Z,4.20
2019-02-10T01:47:46.644Z,4.20
2019-02-10T01:50:15.364Z,4.20
2019-02-10T01:52:44.161Z,4.20
2019-02-10T01:55:14.186Z,4.10
2019-02-10T01:57:42.957Z,4.00
2019-02-10T02:00:14.889Z,4.00
2019-02-10T02:02:43.608Z,4.00
2019-02-10T02:05:12.397Z,4.00
2019-02-10T02:07:41.246Z,4.00
2019-02-10T02:10:12.277Z,4.10
2019-02-10T02:12:41.205Z,4.10
2019-02-10T02:15:12.628Z,4.10
2019-02-10T02:17:41.465Z,4.10
2019-02-10T02:20:11.581Z,4.10
2019-02-10T02:22:40.429Z,4.20
2019-02-10T02:25:10.585Z,4.20
2019-02-10T02:27:39.309Z,4.20
2019-02-10T02:30:13.930Z,4.30
2019-02-10T02:32:44.318Z,4.30
2019-02-10T02:35:13.077Z,4.30
2019-02-10T02:37:41.901Z,4.30
2019-02-10T02:40:11.660Z,4.30
2019-02-10T02:42:40.896Z,4.20
2019-02-10T02:45:11.536Z,4.20
2019-02-10T02:47:40.484Z,4.20
2019-02-10T02:50:11.008Z,4.20
2019-02-10T02:52:39.777Z,4.20
2019-02-10T02:55:09.926Z,4.20
2019-02-10T02:57:38.737Z,4.20
2019-02-10T03:00:09.445Z,4.10
2019-02-10T03:02:38.200Z,4.10
2019-02-10T03:05:09.240Z,4.00
2019-02-10T03:07:38.070Z,4.10
2019-02-10T03:10:08.568Z,4.00
2019-02-10T03:12:37.320Z,4.00
2019-02-10T03:15:08.961Z,3.90
2019-02-10T03:17:37.692Z,3.90
2019-02-10T03:20:08.046Z,3.80
2019-02-10T03:22:36.770Z,3.90
2019-02-10T03:25:07.605Z,3.90
2019-02-10T03:27:36.351Z,3.90
2019-02-10T03:30:08.154Z,3.90
2019-02-10T03:32:36.883Z,3.90
2019-02-10T03:35:09.622Z,3.90
2019-02-10T03:37:38.352Z,4.00
2019-02-10T03:40:08.925Z,4.00
2019-02-10T03:42:37.653Z,4.10
2019-02-10T03:45:10.098Z,4.20
2019-02-10T03:47:38.816Z,4.20
2019-02-10T03:50:09.657Z,4.20
2019-02-10T03:52:38.396Z,4.20
2019-02-10T03:55:08.343Z,4.20
2019-02-10T03:57:37.075Z,4.30
2019-02-10T04:00:11.749Z,4.30
2019-02-10T04:02:40.507Z,4.40
2019-02-10T04:05:09.370Z,4.30
2019-02-10T04:07:38.129Z,4.30
2019-02-10T04:10:09.764Z,4.30
2019-02-10T04:12:38.529Z,4.20
2019-02-10T04:15:08.238Z,4.20
2019-02-10T04:17:37.031Z,4.20
2019-02-10T04:20:07.361Z,4.20
2019-02-10T04:22:36.122Z,4.20
2019-02-10T04:25:05.813Z,4.20
2019-02-10T04:27:34.573Z,4.20
2019-02-10T04:30:04.675Z,4.20
2019-02-10T04:32:33.441Z,4.30
2019-02-10T04:35:02.178Z,4.20
2019-02-10T04:37:30.942Z,4.20
2019-02-10T04:39:59.680Z,4.20
2019-02-10T04:42:28.502Z,4.20
2019-02-10T04:44:57.270Z,4.10
2019-02-10T04:47:25.986Z,4.10
2019-02-10T04:49:54.749Z,4.10
2019-02-10T04:52:23.478Z,4.10
2019-02-10T04:54:52.234Z,4.00
2019-02-10T04:57:20.961Z,4.10
2019-02-10T04:59:49.735Z,4.10
2019-02-10T05:02:18.562Z,4.20
2019-02-10T05:04:47.317Z,4.20
2019-02-10T05:07:16.053Z,4.20
2019-02-10T05:09:44.822Z,4.20
2019-02-10T05:12:13.609Z,4.20
2019-02-10T05:14:42.377Z,4.20
2019-02-10T05:17:11.109Z,4.20
2019-02-10T05:19:39.868Z,4.20
2019-02-10T05:22:08.597Z,4.20
2019-02-10T05:24:37.453Z,4.20
2019-02-10T05:27:06.300Z,4.20
2019-02-10T05:29:35.055Z,4.20
2019-02-10T05:32:03.816Z,4.20
2019-02-10T05:34:32.609Z,4.20
2019-02-10T05:37:01.364Z,4.20
2019-02-10T05:39:30.093Z,4.20
2019-02-10T05:41:58.926Z,4.10
2019-02-10T05:44:27.673Z,4.10
2019-02-10T05:46:56.437Z,4.10
2019-02-10T05:49:25.229Z,4.10
2019-02-10T05:51:54.036Z,4.20
2019-02-10T05:54:22.774Z,4.20
2019-02-10T05:56:51.534Z,4.20
2019-02-10T05:59:20.252Z,4.20
2019-02-10T06:02:08.593Z,4.20
2019-02-10T06:04:40.297Z,4.20
2019-02-10T06:07:12.329Z,4.20
2019-02-10T06:09:41.061Z,4.10
2019-02-10T06:12:09.829Z,4.10
2019-02-10T06:14:38.557Z,4.00
2019-02-10T06:17:07.329Z,3.90
2019-02-10T06:19:36.060Z,3.80
2019-02-10T06:22:04.790Z,3.80
2019-02-10T06:24:34.568Z,3.80
2019-02-10T06:27:03.305Z,3.70
2019-02-10T06:29:32.073Z,3.70
2019-02-10T06:32:00.815Z,3.60
2019-02-10T06:34:29.570Z,3.70
2019-02-10T06:36:58.290Z,3.70
2019-02-10T06:39:27.051Z,3.70
2019-02-10T06:41:55.778Z,3.60
2019-02-10T06:44:24.541Z,3.60
2019-02-10T06:46:53.344Z,3.60
2019-02-10T06:49:22.093Z,3.60
2019-02-10T06:51:50.897Z,3.60
2019-02-10T06:54:19.988Z,3.70
2019-02-10T06:56:48.701Z,3.80
2019-02-10T06:59:25.048Z,3.80
2019-02-10T07:01:55.413Z,3.90
2019-02-10T07:04:26.082Z,4.00
2019-02-10T07:06:55.770Z,4.00
2019-02-10T07:09:26.413Z,4.10
2019-02-10T07:11:55.526Z,4.10
2019-02-10T07:14:32.291Z,4.20
2019-02-10T07:17:12.686Z,4.30
2019-02-10T07:20:18.021Z,4.30
2019-02-10T07:22:49.796Z,4.40
2019-02-10T07:25:27.105Z,4.60
2019-02-10T07:28:04.649Z,4.70
2019-02-10T07:30:38.936Z,4.80
2019-02-10T07:33:10.642Z,4.90
2019-02-10T07:35:54.627Z,4.90
2019-02-10T07:38:38.559Z,4.90
2019-02-10T07:41:20.402Z,5.00
2019-02-10T07:44:25.961Z,5.00
2019-02-10T07:47:14.402Z,5.10
2019-02-10T07:49:46.243Z,5.10
2019-02-10T07:52:29.644Z,5.20
2019-02-10T07:55:25.577Z,5.30
2019-02-10T07:58:00.242Z,5.40
2019-02-10T08:00:37.990Z,5.60
2019-02-10T08:03:12.652Z,5.70
2019-02-10T08:05:44.521Z,5.80
2019-02-10T08:08:33.551Z,6.00
2019-02-10T08:11:34.419Z,6.00
2019-02-10T08:14:37.992Z,6.20
2019-02-10T08:17:13.792Z,6.20
2019-02-10T08:19:51.479Z,6.30
2019-02-10T08:22:42.965Z,6.30
2019-02-10T08:25:41.758Z,6.40
2019-02-10T08:28:22.676Z,6.50
2019-02-10T08:31:00.767Z,6.70
2019-02-10T08:33:50.764Z,6.80
2019-02-10T08:36:35.750Z,6.90
2019-02-10T08:39:28.417Z,7.00
2019-02-10T08:42:24.654Z,7.10
2019-02-10T08:45:23.564Z,7.30
2019-02-10T08:48:04.237Z,7.40
2019-02-10T08:50:56.764Z,7.50
2019-02-10T08:53:27.791Z,7.50
2019-02-10T08:55:56.939Z,7.60
2019-02-10T08:58:25.825Z,7.60
2019-02-10T09:00:54.550Z,7.60
2019-02-10T09:03:23.318Z,7.70
2019-02-10T09:05:52.362Z,7.70
2019-02-10T09:08:22.597Z,7.80
2019-02-10T09:10:51.432Z,7.80
2019-02-10T09:13:21.938Z,7.80
2019-02-10T09:15:52.387Z,7.90
2019-02-10T09:18:23.099Z,7.90
2019-02-10T09:20:53.493Z,7.90
2019-02-10T09:23:22.337Z,8.10
2019-02-10T09:25:51.161Z,8.10
2019-02-10T09:28:20.207Z,8.20
2019-02-10T09:30:48.900Z,8.30
2019-02-10T09:33:17.725Z,8.30
2019-02-10T09:35:46.521Z,8.30
2019-02-10T09:38:15.282Z,8.20
2019-02-10T09:40:44.283Z,8.20
2019-02-10T09:43:13.049Z,8.20
2019-02-10T09:45:41.880Z,8.10
2019-02-10T09:48:10.615Z,8.10
2019-02-10T09:50:39.746Z,8.10
2019-02-10T09:53:08.789Z,8.20
2019-02-10T09:55:37.522Z,8.20
2019-02-10T09:58:06.266Z,8.20
2019-02-10T10:00:35.025Z,8.30
2019-02-10T10:03:03.745Z,8.50
2019-02-10T10:05:32.584Z,8.60
2019-02-10T10:08:01.391Z,8.70
2019-02-10T10:10:30.170Z,8.80
2019-02-10T10:12:58.935Z,8.90
2019-02-10T10:15:27.684Z,9.00
2019-02-10T10:17:57.020Z,9.00
2019-02-10T10:20:28.723Z,9.00
2019-02-10T10:22:57.965Z,9.00
2019-02-10T10:25:30.454Z,9.00
2019-02-10T10:27:59.208Z,9.00
2019-02-10T10:30:27.945Z,8.90
2019-02-10T10:32:56.716Z,8.90
2019-02-10T10:35:26.355Z,8.90
2019-02-10T10:37:55.813Z,8.80
2019-02-10T10:40:26.458Z,8.90
2019-02-10T10:43:00.273Z,8.90
2019-02-10T10:45:29.408Z,8.90
2019-02-10T10:47:58.699Z,9.00
2019-02-10T10:50:28.326Z,9.00
2019-02-10T10:52:57.427Z,9.20
2019-02-10T10:55:28.143Z,9.40
2019-02-10T10:57:56.845Z,9.70
2019-02-10T11:00:25.642Z,9.90
2019-02-10T11:02:54.401Z,10.10
2019-02-10T11:05:23.333Z,10.40
2019-02-10T11:07:52.777Z,10.60
2019-02-10T11:10:21.640Z,10.70
2019-02-10T11:12:50.457Z,10.70
2019-02-10T11:15:19.213Z,10.70
2019-02-10T11:17:48.016Z,10.80
2019-02-10T11:20:16.770Z,10.80
2019-02-10T11:22:45.571Z,10.80
2019-02-10T11:25:14.328Z,10.80
2019-02-10T11:27:43.253Z,10.90
2019-02-10T11:30:14.264Z,11.00
2019-02-10T11:32:43.004Z,11.00
2019-02-10T11:35:11.919Z,11.10
2019-02-10T11:37:40.805Z,11.40
2019-02-10T11:40:11.706Z,11.40
2019-02-10T11:42:40.801Z,11.60
2019-02-10T11:45:12.089Z,11.70
2019-02-10T11:47:40.822Z,11.90
2019-02-10T11:50:14.105Z,12.00
2019-02-10T11:52:42.955Z,12.10
2019-02-10T11:55:11.990Z,12.20
2019-02-10T11:57:40.726Z,12.30
2019-02-10T12:00:17.450Z,12.30
2019-02-10T12:02:46.277Z,12.20
2019-02-10T12:05:15.013Z,12.30
2019-02-10T12:07:43.847Z,12.20
2019-02-10T12:10:13.617Z,12.20
2019-02-10T12:12:42.785Z,12.10
2019-02-10T12:15:14.056Z,12.10
2019-02-10T12:17:42.821Z,12.20
2019-02-10T12:20:13.457Z,12.10
2019-02-10T12:22:49.650Z,12.10
2019-02-10T12:25:12.811Z,12.10
2019-02-10T12:27:43.645Z,12.10
2019-02-10T12:30:16.535Z,12.10
2019-02-10T12:32:45.376Z,12.10
2019-02-10T12:35:14.189Z,12.10
2019-02-10T12:37:43.024Z,12.10
2019-02-10T12:40:12.354Z,12.20
2019-02-10T12:42:44.134Z,12.20
2019-02-10T12:45:14.954Z,12.30
2019-02-10T12:47:43.901Z,12.40
2019-02-10T12:50:13.810Z,12.30
2019-02-10T12:52:45.346Z,12.40
2019-02-10T12:55:14.537Z,12.40
2019-02-10T12:57:43.700Z,12.40
2019-02-10T13:00:17.746Z,12.50
2019-02-10T13:02:46.629Z,12.70
2019-02-10T13:05:15.405Z,12.70
2019-02-10T13:07:44.146Z,12.80
2019-02-10T13:10:17.454Z,12.90
2019-02-10T13:12:45.541Z,13.00
2019-02-10T13:15:14.308Z,13.00
2019-02-10T13:17:43.142Z,13.00
2019-02-10T13:20:15.177Z,13.00
2019-02-10T13:22:43.987Z,13.10
2019-02-10T13:25:14.937Z,13.10
2019-02-10T13:27:43.918Z,13.10
2019-02-10T13:30:14.505Z,13.10
2019-02-10T13:32:43.241Z,13.00
2019-02-10T13:35:12.085Z,12.90
2019-02-10T13:37:41.065Z,12.90
2019-02-10T13:40:18.265Z,13.00
2019-02-10T13:44:40.940Z,12.90
2019-02-10T13:47:14.279Z,13.00
2019-02-10T13:49:44.692Z,13.10
2019-02-10T13:52:13.505Z,13.10
2019-02-10T13:54:42.242Z,13.10
2019-02-10T13:57:11.285Z,13.20
2019-02-10T13:59:43.332Z,13.30
2019-02-10T14:02:12.153Z,13.40
2019-02-10T14:04:40.958Z,13.40
2019-02-10T14:07:09.830Z,13.40
2019-02-10T14:09:38.910Z,13.40
2019-02-10T14:12:07.677Z,13.40
2019-02-10T14:14:36.412Z,13.40
2019-02-10T14:17:05.265Z,13.20
2019-02-10T14:19:34.035Z,13.10
2019-02-10T14:22:02.769Z,13.10
2019-02-10T14:24:31.629Z,13.00
2019-02-10T14:27:00.358Z,12.90
2019-02-10T14:29:29.118Z,12.70
2019-02-10T14:31:57.852Z,12.50
2019-02-10T14:34:26.667Z,12.40
2019-02-10T14:36:55.342Z,12.30
2019-02-10T14:39:24.101Z,12.30
2019-02-10T14:41:52.847Z,12.20
2019-02-10T14:44:21.681Z,12.10
2019-02-10T14:46:50.409Z,12.00
2019-02-10T14:49:19.182Z,12.00
2019-02-10T14:51:47.924Z,12.10
2019-02-10T14:54:16.694Z,12.10
2019-02-10T14:56:46.623Z,12.10
2019-02-10T14:59:15.325Z,12.10
2019-02-10T15:01:44.092Z,12.00
2019-02-10T15:04:12.910Z,12.00
2019-02-10T15:06:41.669Z,11.80
2019-02-10T15:09:11.484Z,11.70
2019-02-10T15:11:40.257Z,11.60
2019-02-10T15:14:08.989Z,11.50
2019-02-10T15:16:37.758Z,11.40
2019-02-10T15:19:06.486Z,11.40
2019-02-10T15:21:35.345Z,11.40
2019-02-10T15:24:04.190Z,11.50
2019-02-10T15:26:32.954Z,11.80
2019-02-10T15:29:01.750Z,11.90
2019-02-10T15:31:30.569Z,11.80
2019-02-10T15:33:59.300Z,11.60
2019-02-10T15:36:28.032Z,11.50
2019-02-10T15:38:56.792Z,11.30
2019-02-10T15:41:25.593Z,11.30
2019-02-10T15:44:16.161Z,11.20
2019-02-10T15:46:45.013Z,11.00
2019-02-10T15:49:13.869Z,10.90
2019-02-10T15:51:42.656Z,11.30
2019-02-10T15:54:11.457Z,11.50
2019-02-10T15:56:43.292Z,11.40
2019-02-10T15:59:12.053Z,11.40
2019-02-10T16:01:42.153Z,11.40
2019-02-10T16:04:10.946Z,11.20
2019-02-10T16:06:39.692Z,11.00
2019-02-10T16:09:08.474Z,10.90
2019-02-10T16:11:37.210Z,10.70
2019-02-10T16:14:05.980Z,10.70
2019-02-10T16:16:34.713Z,10.60
2019-02-10T16:19:03.553Z,10.60
2019-02-10T16:21:32.285Z,10.70
2019-02-10T16:24:01.069Z,10.80
2019-02-10T16:26:29.847Z,10.70
2019-02-10T16:28:58.756Z,10.60
2019-02-10T16:31:27.517Z,10.50
2019-02-10T16:33:56.253Z,10.50
2019-02-10T16:36:25.021Z,10.30
2019-02-10T16:38:53.826Z,10.40
2019-02-10T16:41:22.596Z,10.40
2019-02-10T16:43:51.387Z,10.60
2019-02-10T16:46:20.152Z,10.60
2019-02-10T16:48:48.886Z,10.60
2019-02-10T16:51:17.648Z,10.50
2019-02-10T16:53:46.388Z,10.50
2019-02-10T16:56:15.150Z,10.40
2019-02-10T16:58:43.901Z,10.20
2019-02-10T17:01:12.672Z,10.20
2019-02-10T17:03:41.413Z,10.30
2019-02-10T17:06:10.186Z,10.30
2019-02-10T17:08:38.914Z,10.20
2019-02-10T17:11:14.214Z,10.20
2019-02-10T17:13:38.184Z,10.10
2019-02-10T17:16:06.928Z,10.00
2019-02-10T17:18:35.689Z,10.00
2019-02-10T17:21:04.408Z,9.90
2019-02-10T17:23:33.430Z,9.70
2019-02-10T17:26:02.204Z,9.60
2019-02-10T17:28:30.973Z,9.50
2019-02-10T17:30:59.777Z,9.40
2019-02-10T17:33:28.537Z,9.30
2019-02-10T17:35:57.273Z,9.20
2019-02-10T17:38:26.177Z,9.30
2019-02-10T17:41:03.510Z,9.40
2019-02-10T17:43:32.273Z,9.40
2019-02-10T17:46:01.013Z,9.30
2019-02-10T17:48:29.845Z,9.30
2019-02-10T17:50:58.668Z,9.30
2019-02-10T17:53:27.589Z,9.10
2019-02-10T17:55:56.693Z,9.20
2019-02-10T17:58:29.654Z,9.20
2019-02-10T18:00:58.593Z,8.80
2019-02-10T18:03:27.509Z,8.20
2019-02-10T18:05:56.501Z,7.80
2019-02-10T18:08:25.474Z,7.20
2019-02-10T18:10:54.519Z,6.80
2019-02-10T18:13:23.582Z,6.60
2019-02-10T18:16:06.065Z,6.50
2019-02-10T18:18:39.349Z,6.20
2019-02-10T18:21:28.000Z,6.10
2019-02-10T18:24:04.644Z,6.00
2019-02-10T18:26:51.726Z,5.90
2019-02-10T18:29:37.204Z,5.80
2019-02-10T18:32:10.386Z,5.80
2019-02-10T18:34:41.464Z,5.70
2019-02-10T18:37:21.259Z,5.40
2019-02-10T18:39:51.981Z,5.30
2019-02-10T18:42:31.247Z,5.30
2019-02-10T18:45:07.615Z,5.20
2019-02-10T18:47:43.012Z,5.30
2019-02-10T18:50:16.045Z,5.20
2019-02-10T18:53:03.933Z,5.20
2019-02-10T18:55:34.416Z,5.30
2019-02-10T18:58:10.851Z,5.30
2019-02-10T19:00:44.170Z,5.30
2019-02-10T19:03:20.552Z,5.30
2019-02-10T19:05:52.806Z,5.30
2019-02-10T19:08:30.773Z,5.20
2019-02-10T19:11:04.254Z,5.30
2019-02-10T19:13:40.957Z,5.20
2019-02-10T19:16:12.405Z,5.20
2019-02-10T19:18:42.780Z,5.20
2019-02-10T19:21:16.574Z,5.20
2019-02-10T19:23:49.870Z,5.10
2019-02-10T19:26:23.838Z,5.10
2019-02-10T19:29:03.610Z,5.10
2019-02-10T19:31:46.418Z,5.10
2019-02-10T19:34:25.667Z,5.00
2019-02-10T19:36:56.128Z,5.10
2019-02-10T19:39:43.609Z,5.00
2019-02-10T19:42:15.911Z,5.10
2019-02-10T19:44:49.317Z,5.10
2019-02-10T19:47:21.495Z,5.20
2019-02-10T19:49:54.653Z,5.20
2019-02-10T19:52:33.843Z,5.20
2019-02-10T19:55:04.600Z,5.30
2019-02-10T19:57:41.373Z,5.20
2019-02-10T20:00:18.581Z,5.20
2019-02-10T20:02:58.306Z,5.30
2019-02-10T20:05:44.297Z,5.30
2019-02-10T20:08:14.686Z,5.40
2019-02-10T20:10:57.112Z,5.40
2019-02-10T20:13:46.080Z,5.40
2019-02-10T20:16:22.685Z,5.30
2019-02-10T20:18:53.872Z,5.20
2019-02-10T20:21:25.615Z,5.30
2019-02-10T20:23:59.701Z,5.20
2019-02-10T20:26:33.195Z,5.20
2019-02-10T20:29:04.320Z,5.20
2019-02-10T20:31:51.735Z,5.20
2019-02-10T20:34:22.256Z,5.20
2019-02-10T20:37:08.758Z,5.20
2019-02-10T20:39:55.411Z,5.20
2019-02-10T20:42:28.580Z,5.20
2019-02-10T20:45:11.401Z,5.20
2019-02-10T20:47:44.527Z,5.10
2019-02-10T20:50:24.329Z,5.10
2019-02-10T20:53:11.173Z,5.20
2019-02-10T20:55:41.575Z,5.20
2019-02-10T20:58:11.940Z,5.30
2019-02-10T21:00:45.478Z,5.10
2019-02-10T21:03:18.582Z,5.10
2019-02-10T21:05:51.873Z,5.10
2019-02-10T21:08:24.992Z,5.00
2019-02-10T21:11:10.418Z,5.00
2019-02-10T21:13:49.664Z,5.00
2019-02-10T21:16:23.037Z,4.90
2019-02-10T21:18:53.409Z,4.90
2019-02-10T21:21:23.816Z,4.80
2019-02-10T21:23:57.150Z,4.80
2019-02-10T21:26:33.300Z,4.70
2019-02-10T21:29:12.461Z,4.60
2019-02-10T21:31:51.927Z,4.70
2019-02-10T21:34:34.801Z,4.70
2019-02-10T21:37:21.637Z,4.80
2019-02-10T21:39:58.112Z,4.70
2019-02-10T21:42:31.243Z,4.70
2019-02-10T21:45:17.840Z,4.70
2019-02-10T21:47:48.241Z,4.70
2019-02-10T21:50:16.968Z,4.60
2019-02-10T21:52:45.785Z,4.70
2019-02-10T21:55:14.522Z,4.60
2019-02-10T21:57:43.353Z,4.50
2019-02-10T22:00:14.084Z,4.50
2019-02-10T22:02:42.810Z,4.50
2019-02-10T22:05:11.669Z,4.40
2019-02-10T22:07:40.434Z,4.50
2019-02-10T22:10:11.634Z,4.40
2019-02-10T22:12:40.461Z,4.40
2019-02-10T22:15:10.526Z,4.40
2019-02-10T22:17:39.365Z,4.40
2019-02-10T22:20:11.059Z,4.40
2019-02-10T22:22:40.690Z,4.40
2019-02-10T22:25:12.552Z,4.40
2019-02-10T22:27:41.281Z,4.50
2019-02-10T22:30:13.067Z,4.60
2019-02-10T22:32:41.796Z,4.50
2019-02-10T22:35:10.552Z,4.50
2019-02-10T22:37:39.288Z,4.60
2019-02-10T22:40:10.645Z,4.60
2019-02-10T22:42:45.522Z,4.50
2019-02-10T22:45:11.953Z,4.60
2019-02-10T22:47:41.675Z,4.60
2019-02-10T22:50:13.048Z,4.60
2019-02-10T22:52:41.785Z,4.50
2019-02-10T22:55:10.658Z,4.60
2019-02-10T22:57:43.205Z,4.60
2019-02-10T23:00:28.476Z,4.60
2019-02-10T23:02:57.233Z,4.60
2019-02-10T23:05:26.029Z,4.60
2019-02-10T23:07:54.892Z,4.50
2019-02-10T23:10:23.793Z,4.60
2019-02-10T23:12:53.711Z,4.60
2019-02-10T23:15:22.797Z,4.60
2019-02-10T23:17:51.554Z,4.60
2019-02-10T23:20:20.284Z,4.70
2019-02-10T23:22:49.113Z,4.60
2019-02-10T23:25:17.841Z,4.60
2019-02-10T23:27:46.593Z,4.70
2019-02-10T23:30:15.336Z,4.60
2019-02-10T23:32:44.175Z,4.60
2019-02-10T23:35:12.900Z,4.50
2019-02-10T23:37:41.773Z,4.50
2019-02-10T23:40:10.567Z,4.50
2019-02-10T23:42:39.297Z,4.50
2019-02-10T23:45:08.752Z,4.50
2019-02-10T23:47:37.485Z,4.60
2019-02-10T23:50:07.747Z,4.60
2019-02-10T23:52:36.483Z,4.70
2019-02-10T23:55:05.952Z,4.60
2019-02-10T23:57:41.805Z,4.70
